sensor_id;sensor_type;location;lat;lon;timestamp;pressure;altitude;pressure_sealevel;temperature;humidity
11314;BME280;5712;48.858;9.206;2024-01-10T00:00:41;98995.34;;;-4.94;90.48
11314;BME280;5712;48.858;9.206;2024-01-10T00:03:08;98992.84;;;-4.89;89.38
11314;BME280;5712;48.858;9.206;2024-01-10T00:05:34;98989.41;;;-4.88;89.16
11314;BME280;5712;48.858;9.206;2024-01-10T00:08:01;98985.09;;;-4.86;88.62
11314;BME280;5712;48.858;9.206;2024-01-10T00:10:29;98981.69;;;-4.82;88.57
11314;BME280;5712;48.858;9.206;2024-01-10T00:12:55;98975.66;;;-4.78;87.80
11314;BME280;5712;48.858;9.206;2024-01-10T00:15:22;98972.28;;;-4.71;87.55
11314;BME280;5712;48.858;9.206;2024-01-10T00:17:48;98975.72;;;-4.69;87.46
11314;BME280;5712;48.858;9.206;2024-01-10T00:20:15;98982.63;;;-4.67;88.08
11314;BME280;5712;48.858;9.206;2024-01-10T00:22:42;98980.03;;;-4.65;88.36
11314;BME280;5712;48.858;9.206;2024-01-10T00:25:08;98971.47;;;-4.60;88.35
11314;BME280;5712;48.858;9.206;2024-01-10T00:27:36;98972.34;;;-4.59;88.12
11314;BME280;5712;48.858;9.206;2024-01-10T00:30:03;98969.72;;;-4.58;88.03
11314;BME280;5712;48.858;9.206;2024-01-10T00:32:30;98970.59;;;-4.54;87.74
11314;BME280;5712;48.858;9.206;2024-01-10T00:34:57;98961.16;;;-4.55;87.02
11314;BME280;5712;48.858;9.206;2024-01-10T00:37:23;98955.13;;;-4.54;86.70
11314;BME280;5712;48.858;9.206;2024-01-10T00:39:50;98962.03;;;-4.50;87.21
11314;BME280;5712;48.858;9.206;2024-01-10T00:42:16;98965.47;;;-4.48;87.55
11314;BME280;5712;48.858;9.206;2024-01-10T00:44:44;98970.66;;;-4.45;87.96
11314;BME280;5712;48.858;9.206;2024-01-10T00:47:11;98968.94;;;-4.43;88.18
11314;BME280;5712;48.858;9.206;2024-01-10T00:49:37;98965.47;;;-4.42;88.10
11314;BME280;5712;48.858;9.206;2024-01-10T00:52:04;98963.78;;;-4.40;88.63
11314;BME280;5712;48.858;9.206;2024-01-10T00:54:31;98972.38;;;-4.43;88.90
11314;BME280;5712;48.858;9.206;2024-01-10T00:56:57;98970.66;;;-4.41;88.39
11314;BME280;5712;48.858;9.206;2024-01-10T00:59:24;98974.97;;;-4.41;88.27
11314;BME280;5712;48.858;9.206;2024-01-10T01:01:51;98958.63;;;-4.40;88.02
11314;BME280;5712;48.858;9.206;2024-01-10T01:04:18;98961.19;;;-4.37;87.17
11314;BME280;5712;48.858;9.206;2024-01-10T01:06:44;98960.34;;;-4.39;86.93
11314;BME280;5712;48.858;9.206;2024-01-10T01:09:11;98956.91;;;-4.38;86.67
11314;BME280;5712;48.858;9.206;2024-01-10T01:11:38;98964.66;;;-4.38;86.58
11314;BME280;5712;48.858;9.206;2024-01-10T01:14:06;98965.50;;;-4.41;86.61
11314;BME280;5712;48.858;9.206;2024-01-10T01:16:33;98962.91;;;-4.47;87.09
11314;BME280;5712;48.858;9.206;2024-01-10T01:19:00;98974.06;;;-4.52;87.31
11314;BME280;5712;48.858;9.206;2024-01-10T01:21:27;98985.22;;;-4.55;88.08
11314;BME280;5712;48.858;9.206;2024-01-10T01:23:54;98992.97;;;-4.56;88.33
11314;BME280;5712;48.858;9.206;2024-01-10T01:26:20;98986.06;;;-4.54;88.55
11314;BME280;5712;48.858;9.206;2024-01-10T01:28:47;98992.09;;;-4.55;89.18
11314;BME280;5712;48.858;9.206;2024-01-10T01:31:13;98992.13;;;-4.57;88.75
11314;BME280;5712;48.858;9.206;2024-01-10T01:33:39;98984.34;;;-4.55;88.12
11314;BME280;5712;48.858;9.206;2024-01-10T01:36:07;98990.41;;;-4.55;88.24
11314;BME280;5712;48.858;9.206;2024-01-10T01:38:35;98982.66;;;-4.53;88.33
11314;BME280;5712;48.858;9.206;2024-01-10T01:41:01;98980.94;;;-4.48;88.60
11314;BME280;5712;48.858;9.206;2024-01-10T01:43:28;98982.69;;;-4.44;87.55
11314;BME280;5712;48.858;9.206;2024-01-10T01:45:55;98969.81;;;-4.38;87.08
11314;BME280;5712;48.858;9.206;2024-01-10T01:48:23;98962.91;;;-4.36;86.41
11314;BME280;5712;48.858;9.206;2024-01-10T01:50:53;98968.09;;;-4.35;86.32
11314;BME280;5712;48.858;9.206;2024-01-10T01:53:21;98969.84;;;-4.31;85.64
11314;BME280;5712;48.858;9.206;2024-01-10T01:55:48;98952.63;;;-4.29;85.57
11314;BME280;5712;48.858;9.206;2024-01-10T01:58:16;98944.91;;;-4.27;85.51
11314;BME280;5712;48.858;9.206;2024-01-10T02:00:44;98956.06;;;-4.25;85.89
11314;BME280;5712;48.858;9.206;2024-01-10T02:03:10;98958.66;;;-4.19;85.97
11314;BME280;5712;48.858;9.206;2024-01-10T02:05:37;98960.38;;;-4.18;85.98
11314;BME280;5712;48.858;9.206;2024-01-10T02:08:04;98967.25;;;-4.11;86.24
11314;BME280;5712;48.858;9.206;2024-01-10T02:10:32;98961.25;;;-4.12;86.68
11314;BME280;5712;48.858;9.206;2024-01-10T02:12:59;98966.44;;;-4.06;86.59
11314;BME280;5712;48.858;9.206;2024-01-10T02:15:25;98960.41;;;-4.06;86.45
11314;BME280;5712;48.858;9.206;2024-01-10T02:17:52;98959.56;;;-4.01;86.54
11314;BME280;5712;48.858;9.206;2024-01-10T02:20:19;98960.41;;;-3.99;86.17
11314;BME280;5712;48.858;9.206;2024-01-10T02:22:46;98955.25;;;-4.00;84.94
11314;BME280;5712;48.858;9.206;2024-01-10T02:25:15;98942.34;;;-4.05;84.58
11314;BME280;5712;48.858;9.206;2024-01-10T02:27:42;98950.94;;;-4.07;84.94
11314;BME280;5712;48.858;9.206;2024-01-10T02:30:09;98946.63;;;-4.11;85.38
11314;BME280;5712;48.858;9.206;2024-01-10T02:32:36;98950.06;;;-4.15;85.95
11314;BME280;5712;48.858;9.206;2024-01-10T02:35:03;98953.50;;;-4.19;86.56
11314;BME280;5712;48.858;9.206;2024-01-10T02:37:30;98948.34;;;-4.19;87.00
11314;BME280;5712;48.858;9.206;2024-01-10T02:39:56;98946.59;;;-4.26;86.77
11314;BME280;5712;48.858;9.206;2024-01-10T02:42:24;98950.88;;;-4.33;86.95
11314;BME280;5712;48.858;9.206;2024-01-10T02:44:50;98944.84;;;-4.36;87.07
11314;BME280;5712;48.858;9.206;2024-01-10T02:47:17;98937.97;;;-4.37;87.24
11314;BME280;5712;48.858;9.206;2024-01-10T02:49:43;98944.84;;;-4.45;87.32
11314;BME280;5712;48.858;9.206;2024-01-10T02:52:10;98939.66;;;-4.54;87.66
11314;BME280;5712;48.858;9.206;2024-01-10T02:54:38;98943.97;;;-4.59;88.09
11314;BME280;5712;48.858;9.206;2024-01-10T02:57:04;98945.63;;;-4.67;88.73
11314;BME280;5712;48.858;9.206;2024-01-10T02:59:32;98950.78;;;-4.73;89.54
11314;BME280;5712;48.858;9.206;2024-01-10T03:01:58;98960.22;;;-4.75;89.74
11314;BME280;5712;48.858;9.206;2024-01-10T03:04:25;98952.47;;;-4.81;89.94
11314;BME280;5712;48.858;9.206;2024-01-10T03:06:51;98963.59;;;-4.85;90.47
11314;BME280;5712;48.858;9.206;2024-01-10T03:09:18;98949.88;;;-4.90;90.60
11314;BME280;5712;48.858;9.206;2024-01-10T03:11:44;98953.28;;;-4.94;90.58
11314;BME280;5712;48.858;9.206;2024-01-10T03:14:11;98956.69;;;-4.98;90.88
11314;BME280;5712;48.858;9.206;2024-01-10T03:16:39;98949.81;;;-5.04;91.48
11314;BME280;5712;48.858;9.206;2024-01-10T03:22:39;98965.28;;;-5.02;93.74
11314;BME280;5712;48.858;9.206;2024-01-10T03:25:06;98963.59;;;-4.94;93.98
11314;BME280;5712;48.858;9.206;2024-01-10T03:27:32;98961.91;;;-4.86;94.70
11314;BME280;5712;48.858;9.206;2024-01-10T03:29:59;98961.09;;;-4.75;95.52
11314;BME280;5712;48.858;9.206;2024-01-10T03:32:27;98959.41;;;-4.62;96.06
11314;BME280;5712;48.858;9.206;2024-01-10T03:34:53;98948.28;;;-4.52;96.01
11314;BME280;5712;48.858;9.206;2024-01-10T03:37:20;98950.84;;;-4.48;95.48
11314;BME280;5712;48.858;9.206;2024-01-10T03:39:45;98953.47;;;-4.40;95.15
11314;BME280;5712;48.858;9.206;2024-01-10T03:42:12;98949.16;;;-4.38;94.70
11314;BME280;5712;48.858;9.206;2024-01-10T03:44:38;98940.56;;;-4.36;94.76
11314;BME280;5712;48.858;9.206;2024-01-10T03:47:05;98948.31;;;-4.31;94.34
11314;BME280;5712;48.858;9.206;2024-01-10T03:49:33;98946.63;;;-4.29;93.78
11314;BME280;5712;48.858;9.206;2024-01-10T03:51:59;98947.47;;;-4.26;93.64
11314;BME280;5712;48.858;9.206;2024-01-10T03:54:25;98950.91;;;-4.21;93.68
11314;BME280;5712;48.858;9.206;2024-01-10T03:56:52;98938.88;;;-4.14;93.58
11314;BME280;5712;48.858;9.206;2024-01-10T03:59:18;98939.75;;;-4.09;93.39
11314;BME280;5712;48.858;9.206;2024-01-10T04:01:45;98927.72;;;-4.04;93.87
11314;BME280;5712;48.858;9.206;2024-01-10T04:04:11;98938.06;;;-3.98;94.38
11314;BME280;5712;48.858;9.206;2024-01-10T04:06:39;98943.22;;;-3.92;94.73
11314;BME280;5712;48.858;9.206;2024-01-10T04:09:06;98951.81;;;-3.87;94.48
11314;BME280;5712;48.858;9.206;2024-01-10T04:11:33;98941.50;;;-3.84;93.93
11314;BME280;5712;48.858;9.206;2024-01-10T04:14:00;98944.91;;;-3.82;93.04
11314;BME280;5712;48.858;9.206;2024-01-10T04:16:26;98941.47;;;-3.81;92.27
11314;BME280;5712;48.858;9.206;2024-01-10T04:18:53;98939.75;;;-3.78;91.73
11314;BME280;5712;48.858;9.206;2024-01-10T04:21:20;98942.31;;;-3.72;91.35
11314;BME280;5712;48.858;9.206;2024-01-10T04:23:48;98938.91;;;-3.74;91.07
11314;BME280;5712;48.858;9.206;2024-01-10T04:26:14;98941.47;;;-3.75;90.97
11314;BME280;5712;48.858;9.206;2024-01-10T04:28:41;98939.78;;;-3.73;90.73
11314;BME280;5712;48.858;9.206;2024-01-10T04:31:07;98932.03;;;-3.73;90.53
11314;BME280;5712;48.858;9.206;2024-01-10T04:33:34;98928.56;;;-3.72;90.69
11314;BME280;5712;48.858;9.206;2024-01-10T04:36:01;98931.13;;;-3.69;90.23
11314;BME280;5712;48.858;9.206;2024-01-10T04:38:28;98932.88;;;-3.68;90.04
11314;BME280;5712;48.858;9.206;2024-01-10T04:40:56;98919.94;;;-3.65;89.58
11314;BME280;5712;48.858;9.206;2024-01-10T04:43:22;98911.34;;;-3.64;88.97
11314;BME280;5712;48.858;9.206;2024-01-10T04:45:48;98905.31;;;-3.66;88.79
11314;BME280;5712;48.858;9.206;2024-01-10T04:48:15;98909.59;;;-3.61;87.82
11314;BME280;5712;48.858;9.206;2024-01-10T04:50:41;98908.75;;;-3.61;87.56
11314;BME280;5712;48.858;9.206;2024-01-10T04:53:08;98912.22;;;-3.62;87.33
11314;BME280;5712;48.858;9.206;2024-01-10T04:55:34;98912.19;;;-3.59;87.09
11314;BME280;5712;48.858;9.206;2024-01-10T04:58:02;98901.84;;;-3.59;86.91
11314;BME280;5712;48.858;9.206;2024-01-10T05:00:29;98908.75;;;-3.55;86.21
11314;BME280;5712;48.858;9.206;2024-01-10T05:02:55;98901.84;;;-3.53;85.92
11314;BME280;5712;48.858;9.206;2024-01-10T05:05:22;98907.00;;;-3.50;85.33
11314;BME280;5712;48.858;9.206;2024-01-10T05:07:49;98903.56;;;-3.46;84.68
11314;BME280;5712;48.858;9.206;2024-01-10T05:10:16;98906.97;;;-3.44;84.49
11314;BME280;5712;48.858;9.206;2024-01-10T05:12:42;98903.53;;;-3.40;83.67
11314;BME280;5712;48.858;9.206;2024-01-10T05:15:10;98898.41;;;-3.45;83.13
11314;BME280;5712;48.858;9.206;2024-01-10T05:17:37;98896.66;;;-3.41;82.90
11314;BME280;5712;48.858;9.206;2024-01-10T05:20:04;98900.09;;;-3.36;82.80
11314;BME280;5712;48.858;9.206;2024-01-10T05:22:31;98903.53;;;-3.34;82.59
11314;BME280;5712;48.858;9.206;2024-01-10T05:24:57;98905.25;;;-3.36;83.05
11314;BME280;5712;48.858;9.206;2024-01-10T05:27:24;98899.22;;;-3.32;83.03
11314;BME280;5712;48.858;9.206;2024-01-10T05:29:50;98899.22;;;-3.31;83.21
11314;BME280;5712;48.858;9.206;2024-01-10T05:32:18;98901.78;;;-3.31;82.63
11314;BME280;5712;48.858;9.206;2024-01-10T05:34:45;98906.09;;;-3.27;82.94
11314;BME280;5712;48.858;9.206;2024-01-10T05:37:11;98900.06;;;-3.27;82.82
11314;BME280;5712;48.858;9.206;2024-01-10T05:39:37;98906.97;;;-3.32;83.14
11314;BME280;5712;48.858;9.206;2024-01-10T05:42:04;98900.03;;;-3.21;82.75
11314;BME280;5712;48.858;9.206;2024-01-10T05:44:31;98901.78;;;-3.25;82.49
11314;BME280;5712;48.858;9.206;2024-01-10T05:46:57;98900.09;;;-3.36;82.88
11314;BME280;5712;48.858;9.206;2024-01-10T05:49:26;98904.38;;;-3.38;84.08
11314;BME280;5712;48.858;9.206;2024-01-10T05:51:54;98910.44;;;-3.42;84.06
11314;BME280;5712;48.858;9.206;2024-01-10T05:54:21;98919.94;;;-3.53;84.94
11314;BME280;5712;48.858;9.206;2024-01-10T05:56:47;98912.19;;;-3.61;85.91
11314;BME280;5712;48.858;9.206;2024-01-10T05:59:15;98925.97;;;-3.63;86.93
11314;BME280;5712;48.858;9.206;2024-01-10T06:01:41;98931.16;;;-3.66;87.65
11314;BME280;5712;48.858;9.206;2024-01-10T06:04:08;98934.56;;;-3.72;88.03
11314;BME280;5712;48.858;9.206;2024-01-10T06:06:36;98926.84;;;-3.81;89.13
11314;BME280;5712;48.858;9.206;2024-01-10T06:09:02;98944.94;;;-3.85;90.32
11314;BME280;5712;48.858;9.206;2024-01-10T06:11:30;98945.78;;;-3.91;91.06
11314;BME280;5712;48.858;9.206;2024-01-10T06:13:56;98954.38;;;-3.98;91.20
11314;BME280;5712;48.858;9.206;2024-01-10T06:16:23;98958.69;;;-4.01;91.65
11314;BME280;5712;48.858;9.206;2024-01-10T06:18:50;98958.69;;;-4.07;91.92
11314;BME280;5712;48.858;9.206;2024-01-10T06:21:17;98955.22;;;-4.12;91.85
11314;BME280;5712;48.858;9.206;2024-01-10T06:23:45;98951.81;;;-4.17;91.57
11314;BME280;5712;48.858;9.206;2024-01-10T06:26:12;98958.66;;;-4.13;91.87
11314;BME280;5712;48.858;9.206;2024-01-10T06:28:42;98961.25;;;-4.15;91.61
11314;BME280;5712;48.858;9.206;2024-01-10T06:31:09;98960.41;;;-4.15;92.13
11314;BME280;5712;48.858;9.206;2024-01-10T06:33:35;98965.56;;;-4.15;92.20
11314;BME280;5712;48.858;9.206;2024-01-10T06:36:05;98974.19;;;-4.10;92.55
11314;BME280;5712;48.858;9.206;2024-01-10T06:38:33;98971.56;;;-4.09;92.16
11314;BME280;5712;48.858;9.206;2024-01-10T06:41:07;98977.63;;;-4.02;92.28
11314;BME280;5712;48.858;9.206;2024-01-10T06:43:33;98972.47;;;-4.02;92.04
11314;BME280;5712;48.858;9.206;2024-01-10T06:46:00;98975.88;;;-4.00;92.87
11314;BME280;5712;48.858;9.206;2024-01-10T06:48:28;98969.03;;;-3.92;92.66
11314;BME280;5712;48.858;9.206;2024-01-10T06:50:55;98969.03;;;-3.92;91.73
11314;BME280;5712;48.858;9.206;2024-01-10T06:53:21;98947.50;;;-3.93;90.92
11314;BME280;5712;48.858;9.206;2024-01-10T06:55:48;98958.69;;;-3.98;90.56
11314;BME280;5712;48.858;9.206;2024-01-10T06:58:16;98951.78;;;-3.99;90.10
11314;BME280;5712;48.858;9.206;2024-01-10T07:00:43;98946.63;;;-4.05;88.17
11314;BME280;5712;48.858;9.206;2024-01-10T07:03:09;98950.06;;;-4.15;88.20
11314;BME280;5712;48.858;9.206;2024-01-10T07:05:36;98960.38;;;-4.18;88.49
11314;BME280;5712;48.858;9.206;2024-01-10T07:08:03;98963.81;;;-4.28;89.16
11314;BME280;5712;48.858;9.206;2024-01-10T07:10:29;98968.97;;;-4.34;89.90
11314;BME280;5712;48.858;9.206;2024-01-10T07:12:57;98962.94;;;-4.38;90.67
11314;BME280;5712;48.858;9.206;2024-01-10T07:15:25;98963.78;;;-4.37;91.02
11314;BME280;5712;48.858;9.206;2024-01-10T07:17:51;98955.19;;;-4.35;90.69
11314;BME280;5712;48.858;9.206;2024-01-10T07:20:18;98957.75;;;-4.39;90.33
11314;BME280;5712;48.858;9.206;2024-01-10T07:22:45;98959.50;;;-4.35;90.78
11314;BME280;5712;48.858;9.206;2024-01-10T07:25:11;98967.25;;;-4.31;90.87
11314;BME280;5712;48.858;9.206;2024-01-10T07:27:39;98975.81;;;-4.36;91.20
11314;BME280;5712;48.858;9.206;2024-01-10T07:30:08;98985.28;;;-4.40;91.58
11314;BME280;5712;48.858;9.206;2024-01-10T07:32:40;98990.44;;;-4.47;91.96
11314;BME280;5712;48.858;9.206;2024-01-10T07:35:08;98982.66;;;-4.53;91.89
11314;BME280;5712;48.858;9.206;2024-01-10T07:37:35;98989.53;;;-4.58;91.96
11314;BME280;5712;48.858;9.206;2024-01-10T07:40:02;98997.22;;;-4.61;92.32
11314;BME280;5712;48.858;9.206;2024-01-10T07:42:30;98987.78;;;-4.65;92.24
11314;BME280;5712;48.858;9.206;2024-01-10T07:44:56;98996.34;;;-4.74;92.37
11314;BME280;5712;48.858;9.206;2024-01-10T07:47:23;99002.34;;;-4.76;92.56
11314;BME280;5712;48.858;9.206;2024-01-10T07:49:51;99007.50;;;-4.75;93.67
11314;BME280;5712;48.858;9.206;2024-01-10T07:52:17;99009.19;;;-4.77;94.01
11314;BME280;5712;48.858;9.206;2024-01-10T07:54:47;99007.50;;;-4.75;94.11
11314;BME280;5712;48.858;9.206;2024-01-10T07:57:14;99017.88;;;-4.64;94.16
11314;BME280;5712;48.858;9.206;2024-01-10T07:59:43;99011.88;;;-4.54;93.92
11314;BME280;5712;48.858;9.206;2024-01-10T08:02:09;99011.94;;;-4.39;93.17
11314;BME280;5712;48.858;9.206;2024-01-10T08:04:37;99014.56;;;-4.27;92.17
11314;BME280;5712;48.858;9.206;2024-01-10T08:07:04;99010.28;;;-4.22;91.46
11314;BME280;5712;48.858;9.206;2024-01-10T08:09:31;99014.59;;;-4.15;91.29
11314;BME280;5712;48.858;9.206;2024-01-10T08:11:58;99017.19;;;-4.06;90.83
11314;BME280;5712;48.858;9.206;2024-01-10T08:14:24;99015.50;;;-3.92;90.48
11314;BME280;5712;48.858;9.206;2024-01-10T08:16:51;99013.78;;;-3.84;89.99
11314;BME280;5712;48.858;9.206;2024-01-10T08:19:19;99009.47;;;-3.78;89.56
11314;BME280;5712;48.858;9.206;2024-01-10T08:21:46;99010.34;;;-3.71;89.50
11314;BME280;5712;48.858;9.206;2024-01-10T08:24:14;99015.50;;;-3.61;89.55
11314;BME280;5712;48.858;9.206;2024-01-10T08:26:40;99018.09;;;-3.49;89.52
11314;BME280;5712;48.858;9.206;2024-01-10T08:29:07;99006.06;;;-3.36;88.89
11314;BME280;5712;48.858;9.206;2024-01-10T08:31:33;99005.16;;;-3.26;88.83
11314;BME280;5712;48.858;9.206;2024-01-10T08:34:00;99006.00;;;-3.15;87.92
11314;BME280;5712;48.858;9.206;2024-01-10T08:36:26;99012.03;;;-3.06;87.00
11314;BME280;5712;48.858;9.206;2024-01-10T08:38:53;99012.03;;;-2.97;86.68
11314;BME280;5712;48.858;9.206;2024-01-10T08:41:21;99001.66;;;-2.89;85.75
11314;BME280;5712;48.858;9.206;2024-01-10T08:43:47;99005.94;;;-2.79;84.97
11314;BME280;5712;48.858;9.206;2024-01-10T08:46:14;99005.06;;;-2.75;85.01
11314;BME280;5712;48.858;9.206;2024-01-10T08:48:40;99004.16;;;-2.65;84.43
11314;BME280;5712;48.858;9.206;2024-01-10T08:51:07;98998.13;;;-2.58;84.45
11314;BME280;5712;48.858;9.206;2024-01-10T08:53:35;99011.88;;;-2.50;83.66
11314;BME280;5712;48.858;9.206;2024-01-10T08:56:02;99008.41;;;-2.46;83.41
11314;BME280;5712;48.858;9.206;2024-01-10T08:58:30;99007.50;;;-2.36;83.88
11314;BME280;5712;48.858;9.206;2024-01-10T09:00:56;99004.88;;;-2.27;82.55
11314;BME280;5712;48.858;9.206;2024-01-10T09:03:22;98999.69;;;-2.27;82.83
11314;BME280;5712;48.858;9.206;2024-01-10T09:05:49;98997.84;;;-2.10;81.17
11314;BME280;5712;48.858;9.206;2024-01-10T09:08:16;98990.16;;;-2.21;81.64
11314;BME280;5712;48.858;9.206;2024-01-10T09:10:42;99004.00;;;-2.28;81.80
11314;BME280;5712;48.858;9.206;2024-01-10T09:13:08;99010.91;;;-2.27;82.09
11314;BME280;5712;48.858;9.206;2024-01-10T09:15:36;99010.03;;;-2.24;82.18
11314;BME280;5712;48.858;9.206;2024-01-10T09:18:03;99003.06;;;-2.13;80.40
11314;BME280;5712;48.858;9.206;2024-01-10T09:20:30;98995.25;;;-2.09;78.95
11314;BME280;5712;48.858;9.206;2024-01-10T09:22:56;98986.66;;;-2.14;77.13
11314;BME280;5712;48.858;9.206;2024-01-10T09:25:25;98982.44;;;-2.28;77.18
11314;BME280;5712;48.858;9.206;2024-01-10T09:27:51;98988.50;;;-2.35;78.49
11314;BME280;5712;48.858;9.206;2024-01-10T09:30:18;98985.00;;;-2.24;78.53
11314;BME280;5712;48.858;9.206;2024-01-10T09:32:46;98995.34;;;-2.22;78.25
11314;BME280;5712;48.858;9.206;2024-01-10T09:35:13;99001.44;;;-2.32;79.14
11314;BME280;5712;48.858;9.206;2024-01-10T09:37:39;99001.47;;;-2.38;79.07
11314;BME280;5712;48.858;9.206;2024-01-10T09:40:07;99015.28;;;-2.39;79.66
11314;BME280;5712;48.858;9.206;2024-01-10T09:42:34;99016.09;;;-2.31;79.48
11314;BME280;5712;48.858;9.206;2024-01-10T09:45:04;99016.94;;;-2.26;80.73
11314;BME280;5712;48.858;9.206;2024-01-10T09:47:32;99025.56;;;-2.24;80.50
11314;BME280;5712;48.858;9.206;2024-01-10T09:50:00;99023.00;;;-2.30;79.87
11314;BME280;5712;48.858;9.206;2024-01-10T09:52:34;99021.19;;;-2.16;79.02
11314;BME280;5712;48.858;9.206;2024-01-10T09:55:05;99018.63;;;-2.19;79.32
11314;BME280;5712;48.858;9.206;2024-01-10T09:57:31;99004.78;;;-2.09;77.99
11314;BME280;5712;48.858;9.206;2024-01-10T09:59:59;99009.00;;;-1.95;78.61
11314;BME280;5712;48.858;9.206;2024-01-10T10:02:28;99003.03;;;-2.10;77.31
11314;BME280;5712;48.858;9.206;2024-01-10T10:05:01;98994.47;;;-2.18;77.42
11314;BME280;5712;48.858;9.206;2024-01-10T10:07:29;99002.22;;;-2.15;78.07
11314;BME280;5712;48.858;9.206;2024-01-10T10:09:55;98992.72;;;-2.13;78.05
11314;BME280;5712;48.858;9.206;2024-01-10T10:12:22;98997.75;;;-1.89;77.90
11314;BME280;5712;48.858;9.206;2024-01-10T10:14:49;98982.25;;;-1.95;76.51
11314;BME280;5712;48.858;9.206;2024-01-10T10:17:17;98975.31;;;-1.93;76.41
11314;BME280;5712;48.858;9.206;2024-01-10T10:19:44;98990.00;;;-1.94;76.93
11314;BME280;5712;48.858;9.206;2024-01-10T10:22:12;98977.84;;;-1.87;76.47
11314;BME280;5712;48.858;9.206;2024-01-10T10:24:39;98980.34;;;-1.74;76.54
11314;BME280;5712;48.858;9.206;2024-01-10T10:27:07;98985.56;;;-1.78;77.21
11314;BME280;5712;48.858;9.206;2024-01-10T10:29:35;98972.59;;;-1.72;76.22
11314;BME280;5712;48.858;9.206;2024-01-10T10:32:02;98972.59;;;-1.74;76.56
11314;BME280;5712;48.858;9.206;2024-01-10T10:34:31;98981.22;;;-1.75;77.01
11314;BME280;5712;48.858;9.206;2024-01-10T10:36:57;98984.59;;;-1.65;77.35
11314;BME280;5712;48.858;9.206;2024-01-10T10:39:26;98985.31;;;-1.45;77.46
11314;BME280;5712;48.858;9.206;2024-01-10T10:41:52;98988.66;;;-1.34;77.89
11314;BME280;5712;48.858;9.206;2024-01-10T10:44:23;98992.09;;;-1.28;78.51
11314;BME280;5712;48.858;9.206;2024-01-10T10:46:52;98990.38;;;-1.30;77.43
11314;BME280;5712;48.858;9.206;2024-01-10T10:49:25;98972.22;;;-1.32;76.90
11314;BME280;5712;48.858;9.206;2024-01-10T10:51:55;98977.41;;;-1.33;76.37
11314;BME280;5712;48.858;9.206;2024-01-10T10:54:26;98977.53;;;-1.45;75.67
11314;BME280;5712;48.858;9.206;2024-01-10T10:56:57;98983.50;;;-1.37;76.41
11314;BME280;5712;48.858;9.206;2024-01-10T10:59:26;98985.97;;;-1.25;76.98
11314;BME280;5712;48.858;9.206;2024-01-10T11:01:53;98990.22;;;-1.14;77.77
11314;BME280;5712;48.858;9.206;2024-01-10T11:04:21;98990.03;;;-0.97;77.99
11314;BME280;5712;48.858;9.206;2024-01-10T11:06:47;98978.03;;;-1.07;77.17
11314;BME280;5712;48.858;9.206;2024-01-10T11:09:17;98984.16;;;-1.16;77.63
11314;BME280;5712;48.858;9.206;2024-01-10T11:12:01;98991.97;;;-1.17;77.43
11314;BME280;5712;48.858;9.206;2024-01-10T11:14:42;98985.72;;;-0.97;77.85
11314;BME280;5712;48.858;9.206;2024-01-10T11:17:44;98979.63;;;-0.94;77.12
11314;BME280;5712;48.858;9.206;2024-01-10T11:20:31;98968.31;;;-0.87;75.23
11314;BME280;5712;48.858;9.206;2024-01-10T11:23:25;98964.22;;;-1.09;75.40
11314;BME280;5712;48.858;9.206;2024-01-10T11:25:57;98977.00;;;-0.94;76.27
11314;BME280;5712;48.858;9.206;2024-01-10T11:28:26;98989.09;;;-0.89;78.06
11314;BME280;5712;48.858;9.206;2024-01-10T11:30:53;98988.25;;;-0.92;77.83
11314;BME280;5712;48.858;9.206;2024-01-10T11:33:22;98979.59;;;-0.91;76.56
11314;BME280;5712;48.858;9.206;2024-01-10T11:36:09;98972.50;;;-0.77;77.21
11314;BME280;5712;48.858;9.206;2024-01-10T11:38:41;98958.50;;;-0.64;75.71
11314;BME280;5712;48.858;9.206;2024-01-10T11:41:10;98956.91;;;-0.73;75.37
11314;BME280;5712;48.858;9.206;2024-01-10T11:43:38;98979.34;;;-0.70;76.98
11314;BME280;5712;48.858;9.206;2024-01-10T11:46:05;98988.88;;;-0.71;78.66
11314;BME280;5712;48.858;9.206;2024-01-10T11:48:32;98987.94;;;-0.65;79.01
11314;BME280;5712;48.858;9.206;2024-01-10T11:50:59;98982.69;;;-0.59;77.61
11314;BME280;5712;48.858;9.206;2024-01-10T11:53:40;98970.50;;;-0.54;77.38
11314;BME280;5712;48.858;9.206;2024-01-10T11:56:11;98974.00;;;-0.58;76.01
11314;BME280;5712;48.858;9.206;2024-01-10T11:59:00;98957.81;;;-0.75;76.23
11314;BME280;5712;48.858;9.206;2024-01-10T12:01:29;98963.84;;;-0.75;76.78
11314;BME280;5712;48.858;9.206;2024-01-10T12:03:55;98956.03;;;-0.73;75.71
11314;BME280;5712;48.858;9.206;2024-01-10T12:06:23;98962.19;;;-0.80;75.42
11314;BME280;5712;48.858;9.206;2024-01-10T12:08:50;98956.13;;;-0.81;75.78
11314;BME280;5712;48.858;9.206;2024-01-10T12:11:17;98967.28;;;-0.73;75.46
11314;BME280;5712;48.858;9.206;2024-01-10T12:13:44;98958.44;;;-0.58;75.43
11314;BME280;5712;48.858;9.206;2024-01-10T12:16:13;98959.25;;;-0.55;75.46
11314;BME280;5712;48.858;9.206;2024-01-10T12:18:40;98956.78;;;-0.62;74.80
11314;BME280;5712;48.858;9.206;2024-01-10T12:21:06;98964.34;;;-0.44;75.77
11314;BME280;5712;48.858;9.206;2024-01-10T12:23:35;98958.44;;;-0.57;75.83
11314;BME280;5712;48.858;9.206;2024-01-10T12:26:04;98955.09;;;-0.66;75.85
11314;BME280;5712;48.858;9.206;2024-01-10T12:28:32;98964.63;;;-0.67;76.28
11314;BME280;5712;48.858;9.206;2024-01-10T12:30:59;98956.84;;;-0.67;76.12
11314;BME280;5712;48.858;9.206;2024-01-10T12:33:27;98951.66;;;-0.68;74.76
11314;BME280;5712;48.858;9.206;2024-01-10T12:36:04;98956.84;;;-0.68;74.94
11314;BME280;5712;48.858;9.206;2024-01-10T12:38:32;98955.09;;;-0.66;75.70
11314;BME280;5712;48.858;9.206;2024-01-10T12:40:59;98956.78;;;-0.65;75.56
11314;BME280;5712;48.858;9.206;2024-01-10T12:43:26;98961.91;;;-0.59;75.84
11314;BME280;5712;48.858;9.206;2024-01-10T12:46:02;98961.06;;;-0.60;75.51
11314;BME280;5712;48.858;9.206;2024-01-10T12:48:31;98960.25;;;-0.63;75.51
11314;BME280;5712;48.858;9.206;2024-01-10T12:50:58;98961.91;;;-0.56;76.32
11314;BME280;5712;48.858;9.206;2024-01-10T12:53:26;98957.59;;;-0.57;76.22
11314;BME280;5712;48.858;9.206;2024-01-10T12:55:53;98959.16;;;-0.47;75.32
11314;BME280;5712;48.858;9.206;2024-01-10T12:58:20;98964.34;;;-0.46;75.26
11314;BME280;5712;48.858;9.206;2024-01-10T13:00:46;98964.44;;;-0.53;76.32
11314;BME280;5712;48.858;9.206;2024-01-10T13:03:13;98974.81;;;-0.50;75.87
11314;BME280;5712;48.858;9.206;2024-01-10T13:05:40;98963.56;;;-0.52;75.64
11314;BME280;5712;48.858;9.206;2024-01-10T13:08:07;98955.72;;;-0.48;75.05
11314;BME280;5712;48.858;9.206;2024-01-10T13:10:34;98953.16;;;-0.52;75.20
11314;BME280;5712;48.858;9.206;2024-01-10T13:13:00;98958.34;;;-0.49;76.32
11314;BME280;5712;48.858;9.206;2024-01-10T13:15:28;98949.72;;;-0.51;75.80